Time;durP1;ratioP1;P1;durP2;ratioP2;P2;SDS_P1;SDS_P2;PMS_P1;PMS_P2;Temp;Humidity;BMP_temperature;BMP_pressure;BME280_temperature;BME280_humidity;BME280_pressure;Samples;Min_cycle;Max_cycle;Signal;HPM_P1;HPM_P2
2024/01/31 00:00:12;;;;;;;5.90;5.30;;;;;;;17.06;50.43;99506.14;105432;1258;65088;-41
2024/01/31 00:02:39;;;;;;;5.70;5.10;;;;;;;17.05;50.53;99507.56;105847;1254;70800;-40
2024/01/31 00:05:06;;;;;;;5.40;4.90;;;;;;;17.04;50.45;99508.16;105692;1256;61251;-41
2024/01/31 00:07:33;;;;;;;7.10;5.50;;;;;;;17.04;50.51;99506.16;105948;1254;61278;-42
2024/01/31 00:10:00;;;;;;;5.90;5.30;;;;;;;17.04;50.47;99502.73;105629;1259;74554;-41
2024/01/31 00:12:27;;;;;;;5.40;4.90;;;;;;;17.04;50.50;99507.35;105592;1258;66158;-40
2024/01/31 00:14:54;;;;;;;6.00;5.30;;;;;;;17.04;50.46;99505.41;105575;1254;72543;-41
2024/01/31 00:17:21;;;;;;;5.40;4.90;;;;;;;17.04;50.49;99505.02;105447;1258;61257;-40
2024/01/31 00:19:48;;;;;;;5.40;4.90;;;;;;;17.03;50.51;99509.56;105523;1254;61264;-41
2024/01/31 00:22:15;;;;;;;6.00;5.40;;;;;;;17.04;50.53;99510.27;105560;1257;74384;-42
2024/01/31 00:24:41;;;;;;;6.30;5.20;;;;;;;17.04;50.47;99514.39;105614;1257;66103;-41
2024/01/31 00:27:08;;;;;;;5.70;5.10;;;;;;;17.04;50.48;99520.06;105484;1254;73752;-41
2024/01/31 00:29:35;;;;;;;6.10;5.50;;;;;;;17.04;50.39;99519.59;105513;1257;61280;-40
2024/01/31 00:32:06;;;;;;;7.00;5.30;;;;;;;17.04;50.44;99520.35;105492;1257;61342;-40
2024/01/31 00:34:32;;;;;;;7.30;4.80;;;;;;;17.04;50.45;99521.65;105511;1254;74535;-40
2024/01/31 00:36:59;;;;;;;5.90;5.20;;;;;;;17.03;50.46;99520.78;105470;1257;64901;-40
2024/01/31 00:39:31;;;;;;;5.50;5.00;;;;;;;17.04;50.48;99520.94;105462;1254;72464;-43
2024/01/31 00:41:58;;;;;;;6.70;5.20;;;;;;;17.03;50.36;99517.75;105425;1257;61260;-41
2024/01/31 00:44:26;;;;;;;5.40;4.90;;;;;;;17.03;50.40;99517.65;105649;1254;61192;-40
2024/01/31 00:46:53;;;;;;;6.30;5.50;;;;;;;17.03;50.42;99510.61;105495;1257;74560;-40
2024/01/31 00:49:19;;;;;;;5.30;4.80;;;;;;;17.03;50.36;99512.92;105588;1257;66059;-40
2024/01/31 00:51:52;;;;;;;5.20;4.70;;;;;;;17.03;50.49;99509.92;105625;1254;71660;-40
2024/01/31 00:54:19;;;;;;;6.30;5.10;;;;;;;17.02;50.41;99509.42;105528;1257;61260;-42
2024/01/31 00:56:46;;;;;;;5.80;5.10;;;;;;;17.03;50.37;99509.75;105539;1254;61364;-41
2024/01/31 00:59:12;;;;;;;7.70;5.20;;;;;;;17.02;50.39;99510.36;105563;1254;74659;-42
2024/01/31 01:01:39;;;;;;;5.70;5.00;;;;;;;17.02;50.46;99507.16;105424;1257;64769;-41
2024/01/31 01:04:09;;;;;;;6.00;5.20;;;;;;;17.02;50.37;99509.65;105512;1254;72595;-41
2024/01/31 01:06:40;;;;;;;5.20;4.70;;;;;;;17.03;50.36;99508.29;105742;1258;61336;-41
2024/01/31 01:09:07;;;;;;;7.70;5.40;;;;;;;17.02;50.40;99508.41;105549;1253;61292;-41
2024/01/31 01:11:33;;;;;;;5.40;4.80;;;;;;;17.02;50.36;99506.73;105533;1254;74287;-41
2024/01/31 01:14:00;;;;;;;5.00;4.60;;;;;;;17.02;50.38;99505.33;105704;1254;65993;-40
2024/01/31 01:16:27;;;;;;;5.80;5.20;;;;;;;17.02;50.37;99505.70;105650;1254;72410;-41
2024/01/31 01:18:53;;;;;;;6.80;5.30;;;;;;;17.02;50.41;99506.09;105584;1257;61251;-40
2024/01/31 01:21:20;;;;;;;6.10;5.50;;;;;;;17.02;50.37;99504.52;105571;1254;61266;-41
2024/01/31 01:23:47;;;;;;;5.50;5.00;;;;;;;17.01;50.34;99498.84;105583;1254;61250;-41
2024/01/31 01:26:16;;;;;;;5.50;5.00;;;;;;;17.01;50.35;99498.25;105545;1254;66748;-41
2024/01/31 01:28:43;;;;;;;5.90;5.30;;;;;;;17.01;50.40;99497.87;105530;1254;72655;-41
2024/01/31 01:31:11;;;;;;;8.00;5.40;;;;;;;17.01;50.36;99494.73;105478;1258;61134;-42
2024/01/31 01:33:37;;;;;;;5.10;4.60;;;;;;;17.00;50.37;99491.05;105615;1254;61246;-41
2024/01/31 01:36:05;;;;;;;8.10;5.30;;;;;;;17.01;50.40;99490.84;105635;1254;73345;-40
2024/01/31 01:38:32;;;;;;;5.40;4.90;;;;;;;17.01;50.35;99490.61;105696;1257;66030;-40
2024/01/31 01:40:59;;;;;;;5.60;5.10;;;;;;;17.00;50.34;99490.35;105711;1254;72499;-40
2024/01/31 01:43:25;;;;;;;5.80;5.20;;;;;;;17.00;50.38;99485.86;105589;1259;61301;-40
2024/01/31 01:45:56;;;;;;;6.00;5.40;;;;;;;17.01;50.31;99485.80;105452;1254;61250;-42
2024/01/31 01:48:22;;;;;;;5.50;5.00;;;;;;;17.00;50.23;99483.64;105512;1258;75699;-42
2024/01/31 01:50:49;;;;;;;5.80;5.20;;;;;;;17.00;50.23;99477.21;105522;1259;65714;-41
2024/01/31 01:53:15;;;;;;;5.90;5.40;;;;;;;17.00;50.30;99473.64;105630;1254;73745;-42
2024/01/31 01:55:42;;;;;;;6.10;5.50;;;;;;;17.00;50.25;99470.48;105446;1257;61225;-42
2024/01/31 01:58:09;;;;;;;5.70;5.20;;;;;;;17.01;50.31;99467.40;105406;1254;61333;-41
2024/01/31 02:00:36;;;;;;;6.10;5.50;;;;;;;17.00;50.33;99466.61;105547;1254;74556;-40
2024/01/31 02:03:02;;;;;;;6.10;5.00;;;;;;;17.00;50.34;99459.30;105720;1258;66128;-40
2024/01/31 02:05:30;;;;;;;5.40;4.70;;;;;;;17.00;50.33;99456.00;105593;1254;72685;-40
2024/01/31 02:07:57;;;;;;;5.70;5.10;;;;;;;17.00;50.26;99451.66;105613;1259;61365;-41
2024/01/31 02:10:23;;;;;;;5.60;5.10;;;;;;;17.00;50.33;99448.04;105432;1254;61313;-40
2024/01/31 02:12:50;;;;;;;5.50;5.00;;;;;;;17.00;50.32;99446.86;105519;1257;74424;-40
2024/01/31 02:15:17;;;;;;;6.00;5.10;;;;;;;17.00;50.31;99449.55;105502;1257;66084;-41
2024/01/31 02:17:44;;;;;;;7.50;5.40;;;;;;;16.99;50.30;99451.02;105800;1254;72558;-41
2024/01/31 02:20:15;;;;;;;5.40;4.90;;;;;;;16.99;50.27;99445.61;105562;1259;61227;-38
2024/01/31 02:22:48;;;;;;;6.70;5.10;;;;;;;17.00;50.24;99444.85;105520;1254;61403;-42
2024/01/31 02:25:15;;;;;;;5.60;5.10;;;;;;;17.00;50.20;99449.81;105546;1254;74558;-41
2024/01/31 02:27:42;;;;;;;6.20;5.60;;;;;;;17.00;50.18;99449.02;105672;1257;65897;-41
2024/01/31 02:30:09;;;;;;;5.20;4.70;;;;;;;16.99;50.28;99448.15;105509;1254;72580;-41
2024/01/31 02:32:36;;;;;;;5.70;4.90;;;;;;;16.99;50.29;99446.80;105985;1258;61343;-40
2024/01/31 02:35:04;;;;;;;6.10;5.50;;;;;;;16.99;50.21;99447.61;105659;1254;61204;-40
2024/01/31 02:37:30;;;;;;;5.90;5.30;;;;;;;16.99;50.28;99447.61;105986;1257;74582;-41
2024/01/31 02:39:57;;;;;;;5.70;5.10;;;;;;;16.99;50.17;99447.56;105461;1257;67088;-42
2024/01/31 02:42:24;;;;;;;5.70;5.20;;;;;;;16.99;50.19;99445.99;106110;1254;72955;-42
2024/01/31 02:44:50;;;;;;;5.60;5.10;;;;;;;16.99;50.20;99446.31;105681;1257;61427;-40
2024/01/31 02:47:17;;;;;;;6.80;5.40;;;;;;;16.99;50.21;99444.64;105660;1254;61288;-41
2024/01/31 02:49:43;;;;;;;5.40;4.90;;;;;;;16.99;50.20;99448.70;105547;1254;74576;-41
2024/01/31 02:52:10;;;;;;;5.70;5.10;;;;;;;16.99;50.18;99447.73;105516;1258;66027;-40
2024/01/31 02:54:37;;;;;;;6.20;4.90;;;;;;;16.99;50.20;99447.52;105700;1254;72376;-40
2024/01/31 02:57:04;;;;;;;6.00;4.90;;;;;;;16.98;50.14;99440.52;105634;1258;61407;-40
2024/01/31 02:59:30;;;;;;;5.30;4.80;;;;;;;16.98;50.22;99446.39;105495;1254;61275;-41
2024/01/31 03:01:58;;;;;;;6.50;5.30;;;;;;;16.98;50.15;99443.36;105586;1254;74592;-40
2024/01/31 03:04:25;;;;;;;5.80;5.20;;;;;;;16.98;50.14;99442.23;105732;1260;66295;-40
2024/01/31 03:06:52;;;;;;;6.30;4.90;;;;;;;16.98;50.21;99439.63;105588;1254;72577;-40
2024/01/31 03:09:18;;;;;;;6.00;5.40;;;;;;;16.98;50.22;99434.92;105626;1257;61257;-40
2024/01/31 03:11:45;;;;;;;5.60;4.90;;;;;;;16.97;50.21;99429.58;105566;1254;61279;-40
2024/01/31 03:14:11;;;;;;;6.70;5.20;;;;;;;16.98;50.25;99428.43;105703;1254;61266;-40
2024/01/31 03:16:39;;;;;;;6.20;5.50;;;;;;;16.98;50.18;99432.27;105663;1254;61224;-40
2024/01/31 03:19:06;;;;;;;5.80;5.20;;;;;;;16.98;50.22;99426.64;105711;1254;72611;-40
2024/01/31 03:21:33;;;;;;;6.00;5.40;;;;;;;16.98;50.18;99425.71;105638;1259;61241;-40
2024/01/31 03:24:00;;;;;;;5.70;5.20;;;;;;;16.97;50.18;99422.54;105679;1254;61215;-41
2024/01/31 03:26:27;;;;;;;5.80;5.20;;;;;;;16.97;50.19;99421.06;105643;1254;73380;-40
2024/01/31 03:28:54;;;;;;;6.30;5.10;;;;;;;16.97;50.12;99417.55;105649;1257;66394;-40
2024/01/31 03:31:20;;;;;;;5.30;4.70;;;;;;;16.97;50.15;99419.55;105507;1258;72630;-41
2024/01/31 03:33:47;;;;;;;5.80;5.30;;;;;;;16.97;50.14;99418.15;105575;1258;61382;-41
2024/01/31 03:36:14;;;;;;;5.50;4.50;;;;;;;16.97;50.16;99415.94;105626;1254;61330;-40
2024/01/31 03:38:41;;;;;;;5.30;4.80;;;;;;;16.97;50.18;99415.02;105535;1254;74575;-41
2024/01/31 03:41:08;;;;;;;5.80;5.20;;;;;;;16.97;50.15;99415.61;105611;1258;65538;-40
2024/01/31 03:43:34;;;;;;;5.50;5.00;;;;;;;16.97;50.13;99417.77;105503;1254;72555;-41
2024/01/31 03:46:05;;;;;;;6.00;5.40;;;;;;;16.97;50.04;99415.28;105504;1258;61675;-40
2024/01/31 03:48:32;;;;;;;6.60;5.40;;;;;;;16.96;50.07;99413.17;105694;1254;61339;-40
2024/01/31 03:50:59;;;;;;;5.60;5.00;;;;;;;16.96;50.13;99410.69;105568;1259;74585;-40
2024/01/31 03:53:26;;;;;;;5.20;4.70;;;;;;;16.96;50.09;99409.67;105499;1254;65523;-41
2024/01/31 03:55:53;;;;;;;6.10;5.10;;;;;;;16.96;50.09;99408.42;105592;1254;72580;-40
2024/01/31 03:58:19;;;;;;;5.50;4.90;;;;;;;16.96;50.09;99409.66;105701;1258;61228;-40
2024/01/31 04:00:46;;;;;;;6.90;5.40;;;;;;;16.96;50.13;99409.95;105526;1254;61227;-39
2024/01/31 04:03:14;;;;;;;5.50;5.00;;;;;;;16.96;50.11;99411.19;105467;1254;74394;-41
2024/01/31 04:05:40;;;;;;;6.50;5.50;;;;;;;16.95;50.10;99411.32;105497;1258;65899;-41
2024/01/31 04:08:07;;;;;;;8.00;5.50;;;;;;;16.96;50.11;99413.68;105369;1254;71334;-40
2024/01/31 04:10:34;;;;;;;5.70;5.00;;;;;;;16.95;50.05;99412.50;105660;1257;61215;-42
2024/01/31 04:13:00;;;;;;;5.60;5.00;;;;;;;16.95;50.06;99416.13;105544;1254;61270;-40
2024/01/31 04:15:27;;;;;;;5.70;5.10;;;;;;;16.95;50.12;99421.70;105538;1254;74608;-41
2024/01/31 04:17:54;;;;;;;5.30;4.80;;;;;;;16.96;50.12;99422.56;105526;1257;64761;-40
2024/01/31 04:20:20;;;;;;;5.80;5.30;;;;;;;16.95;50.12;99424.63;105455;1254;72819;-41
2024/01/31 04:22:47;;;;;;;5.50;4.90;;;;;;;16.95;50.15;99425.17;105654;1257;61224;-40
2024/01/31 04:25:14;;;;;;;6.00;5.40;;;;;;;16.95;50.07;99419.36;105469;1254;61329;-40
2024/01/31 04:27:41;;;;;;;5.70;5.10;;;;;;;16.95;50.09;99419.05;105764;1257;74377;-41
2024/01/31 04:30:10;;;;;;;6.30;5.40;;;;;;;16.95;50.15;99418.13;105693;1254;65822;-40
2024/01/31 04:32:36;;;;;;;6.70;5.00;;;;;;;16.95;50.11;99419.38;105940;1254;72589;-40
2024/01/31 04:35:07;;;;;;;5.80;5.20;;;;;;;16.95;50.13;99415.27;105534;1259;61160;-41
2024/01/31 04:37:34;;;;;;;5.60;5.10;;;;;;;16.94;50.07;99407.80;105452;1254;61311;-41
2024/01/31 04:40:01;;;;;;;5.50;4.90;;;;;;;16.95;50.06;99406.60;105699;1254;74627;-41
2024/01/31 04:42:28;;;;;;;5.20;4.70;;;;;;;16.95;50.08;99405.14;106117;1257;65563;-42
2024/01/31 04:44:55;;;;;;;5.40;4.90;;;;;;;16.94;50.08;99407.10;105480;1254;72577;-41
2024/01/31 04:47:25;;;;;;;5.10;4.60;;;;;;;16.95;50.09;99407.20;105495;1259;61228;-40
2024/01/31 04:49:53;;;;;;;6.00;5.20;;;;;;;16.96;50.03;99413.67;105503;1254;61254;-41
2024/01/31 04:52:19;;;;;;;5.80;5.20;;;;;;;16.95;50.09;99408.77;105654;1255;74413;-40
2024/01/31 04:54:46;;;;;;;4.90;4.50;;;;;;;16.95;50.05;99413.42;105666;1258;66118;-40
2024/01/31 04:57:13;;;;;;;5.60;5.10;;;;;;;16.95;50.04;99409.25;105648;1254;72462;-41
2024/01/31 04:59:40;;;;;;;5.60;4.90;;;;;;;16.95;49.97;99410.55;105552;1258;61196;-40
2024/01/31 05:02:07;;;;;;;5.20;4.70;;;;;;;16.95;49.99;99410.81;105524;1254;61337;-40
2024/01/31 05:04:33;;;;;;;7.50;5.10;;;;;;;16.95;50.00;99412.51;105460;1254;74575;-40
2024/01/31 05:07:00;;;;;;;5.30;4.50;;;;;;;16.95;50.03;99409.64;105459;1258;66261;-41
2024/01/31 05:09:27;;;;;;;5.20;4.70;;;;;;;16.95;50.01;99413.36;105602;1254;72512;-41
2024/01/31 05:11:54;;;;;;;6.70;4.70;;;;;;;16.96;50.01;99409.88;105585;1257;61248;-41
2024/01/31 05:14:21;;;;;;;6.60;5.30;;;;;;;16.96;49.97;99408.96;105749;1254;61257;-41
2024/01/31 05:16:48;;;;;;;6.00;4.90;;;;;;;16.96;50.03;99409.98;105476;1254;74323;-41
2024/01/31 05:19:14;;;;;;;5.10;4.70;;;;;;;16.96;49.98;99409.29;105599;1257;65161;-40
2024/01/31 05:21:45;;;;;;;5.90;5.30;;;;;;;16.96;50.01;99406.90;105451;1254;72572;-42
2024/01/31 05:24:13;;;;;;;5.30;4.80;;;;;;;16.96;50.01;99410.59;105485;1259;61260;-41
2024/01/31 05:26:40;;;;;;;5.60;4.80;;;;;;;16.96;49.97;99407.66;105568;1254;61260;-41
2024/01/31 05:29:07;;;;;;;5.60;5.00;;;;;;;16.96;49.93;99405.49;105729;1255;73118;-41
2024/01/31 05:31:33;;;;;;;7.20;5.00;;;;;;;16.97;49.99;99404.46;105480;1259;66263;-40
2024/01/31 05:34:00;;;;;;;5.80;4.90;;;;;;;16.96;49.98;99400.78;105445;1254;71323;-40
2024/01/31 05:36:28;;;;;;;6.20;5.00;;;;;;;16.96;50.02;99403.98;105546;1260;61908;-40
2024/01/31 05:38:55;;;;;;;5.50;5.00;;;;;;;16.97;50.01;99398.89;105624;1259;61228;-40
2024/01/31 05:41:21;;;;;;;5.70;4.80;;;;;;;16.97;49.94;99400.39;105624;1254;74290;-40
2024/01/31 05:43:48;;;;;;;5.10;4.60;;;;;;;16.97;49.95;99401.48;105544;1259;65777;-42
2024/01/31 05:46:16;;;;;;;5.90;5.20;;;;;;;16.98;49.94;99396.71;105485;1254;72415;-41
2024/01/31 05:48:46;;;;;;;5.50;5.00;;;;;;;16.98;49.99;99394.87;105553;1257;61333;-40
2024/01/31 05:51:16;;;;;;;5.90;5.40;;;;;;;16.98;49.92;99394.86;105587;1254;61284;-40
2024/01/31 05:53:42;;;;;;;7.70;6.00;;;;;;;16.98;49.77;99397.35;105578;1254;75019;-40
2024/01/31 05:56:10;;;;;;;7.80;6.10;;;;;;;16.98;49.68;99398.48;105401;1260;66028;-41
2024/01/31 05:58:36;;;;;;;8.60;6.30;;;;;;;16.98;49.61;99402.23;105509;1259;72576;-42
2024/01/31 06:01:03;;;;;;;8.50;6.60;;;;;;;16.98;49.68;99405.95;105446;1258;61250;-43
2024/01/31 06:03:30;;;;;;;11.60;6.70;;;;;;;16.98;49.70;99399.14;105582;1254;61260;-41
2024/01/31 06:05:58;;;;;;;7.50;6.30;;;;;;;16.98;49.70;99400.29;107044;1254;74280;-41
2024/01/31 06:08:25;;;;;;;6.80;6.20;;;;;;;16.98;49.73;99399.27;109312;1254;65536;-41
2024/01/31 06:10:54;;;;;;;7.20;6.20;;;;;;;16.98;49.69;99400.89;109292;1254;74068;-42
2024/01/31 06:13:21;;;;;;;6.80;6.10;;;;;;;16.98;49.71;99398.59;109326;1254;59261;-42
2024/01/31 06:15:47;;;;;;;7.00;6.20;;;;;;;16.99;49.75;99399.17;106618;1254;61368;-42
2024/01/31 06:18:16;;;;;;;7.10;6.20;;;;;;;17.00;49.61;99396.13;105337;1254;61306;-41
2024/01/31 06:20:44;;;;;;;8.20;6.50;;;;;;;17.00;49.57;99400.88;109245;1254;66124;-42
2024/01/31 06:23:11;;;;;;;7.20;6.50;;;;;;;17.02;49.58;99404.59;105555;1259;72409;-42
2024/01/31 06:25:37;;;;;;;7.20;6.40;;;;;;;17.02;49.53;99404.69;105629;1259;63772;-41
2024/01/31 06:28:05;;;;;;;7.40;6.60;;;;;;;17.02;49.44;99400.84;105505;1254;61240;-41
2024/01/31 06:30:41;;;;;;;8.10;6.80;;;;;;;17.02;49.36;99401.70;105676;1254;74281;-41
2024/01/31 06:33:08;;;;;;;6.80;6.10;;;;;;;17.03;49.38;99407.30;105684;1259;66223;-41
2024/01/31 06:35:35;;;;;;;7.50;6.70;;;;;;;17.03;49.39;99408.67;105595;1254;72621;-41
2024/01/31 06:38:02;;;;;;;8.50;6.60;;;;;;;17.02;49.32;99407.98;105539;1258;61235;-41
2024/01/31 06:40:30;;;;;;;10.00;6.70;;;;;;;17.03;49.34;99406.82;105514;1254;61291;-42
2024/01/31 06:43:00;;;;;;;7.70;7.00;;;;;;;17.03;49.31;99406.73;105530;1254;75094;-41
2024/01/31 06:45:27;;;;;;;7.30;6.60;;;;;;;17.02;49.32;99404.58;105452;1254;66555;-41
2024/01/31 06:47:54;;;;;;;7.90;6.60;;;;;;;17.02;49.26;99406.95;105686;1254;72603;-40
2024/01/31 06:50:21;;;;;;;8.20;6.40;;;;;;;17.04;49.31;99405.25;105436;1259;61247;-45
2024/01/31 06:52:47;;;;;;;7.60;6.90;;;;;;;17.04;49.33;99405.20;105578;1254;61248;-46
2024/01/31 06:55:14;;;;;;;8.90;6.80;;;;;;;17.05;49.51;99402.86;105490;1254;74580;-46
2024/01/31 06:57:42;;;;;;;7.10;6.40;;;;;;;17.07;49.45;99401.64;105779;1257;68475;-46
2024/01/31 07:00:12;;;;;;;7.90;7.10;;;;;;;17.08;49.42;99400.34;105659;1257;72957;-45
2024/01/31 07:02:38;;;;;;;7.30;6.60;;;;;;;17.10;49.46;99406.23;105665;1262;61444;-44
2024/01/31 07:05:06;;;;;;;7.80;6.40;;;;;;;17.11;49.47;99399.44;105449;1254;61212;-41
2024/01/31 07:07:33;;;;;;;7.10;6.30;;;;;;;17.13;49.53;99393.77;105524;1255;75432;-42
2024/01/31 07:10:01;;;;;;;7.30;6.60;;;;;;;17.13;49.58;99396.65;105641;1259;65920;-41
2024/01/31 07:12:28;;;;;;;7.90;7.00;;;;;;;17.13;49.54;99392.52;105995;1254;73519;-42
2024/01/31 07:14:55;;;;;;;7.70;6.70;;;;;;;17.14;49.48;99390.46;105440;1259;61245;-42
2024/01/31 07:17:22;;;;;;;7.10;6.50;;;;;;;17.15;49.49;99387.17;105287;1259;61339;-41
2024/01/31 07:19:49;;;;;;;7.80;6.80;;;;;;;17.15;49.58;99388.59;105377;1259;74954;-42
2024/01/31 07:22:16;;;;;;;8.00;6.80;;;;;;;17.16;49.54;99381.59;105622;1254;65907;-42
2024/01/31 07:24:43;;;;;;;8.10;6.70;;;;;;;17.17;49.67;99379.69;105490;1254;72391;-42
2024/01/31 07:27:10;;;;;;;7.50;6.50;;;;;;;17.17;49.63;99383.83;105553;1259;61234;-41
2024/01/31 07:29:37;;;;;;;7.70;6.70;;;;;;;17.18;49.62;99383.12;105324;1254;61233;-42
2024/01/31 07:32:04;;;;;;;7.10;6.40;;;;;;;17.19;49.62;99377.98;105449;1255;74574;-42
2024/01/31 07:34:31;;;;;;;7.90;7.00;;;;;;;17.20;49.74;99380.04;105459;1257;66066;-42
2024/01/31 07:36:58;;;;;;;7.00;6.10;;;;;;;17.21;49.78;99385.61;105417;1254;72507;-41
2024/01/31 07:39:25;;;;;;;7.10;6.40;;;;;;;17.21;49.77;99383.16;105574;1259;61234;-41
2024/01/31 07:41:52;;;;;;;7.20;6.30;;;;;;;17.23;49.70;99383.08;105479;1259;61263;-42
2024/01/31 07:44:19;;;;;;;6.70;5.90;;;;;;;17.24;49.78;99385.77;105345;1259;75030;-43
2024/01/31 07:46:45;;;;;;;8.80;6.50;;;;;;;17.25;49.81;99385.53;105347;1257;66104;-42
2024/01/31 07:49:12;;;;;;;7.10;6.00;;;;;;;17.26;49.75;99380.86;105348;1255;73373;-43
2024/01/31 07:51:43;;;;;;;7.50;6.50;;;;;;;17.26;49.73;99374.14;105441;1260;61243;-42
2024/01/31 07:54:10;;;;;;;7.00;6.20;;;;;;;17.28;49.70;99374.77;105492;1254;61301;-42
2024/01/31 07:56:36;;;;;;;7.60;6.40;;;;;;;17.28;49.62;99372.21;105396;1258;75876;-41
2024/01/31 07:59:03;;;;;;;6.90;6.20;;;;;;;17.28;49.59;99372.04;107711;1258;65482;-41
2024/01/31 08:01:30;;;;;;;7.30;6.30;;;;;;;17.29;49.56;99371.98;105473;1254;72403;-42
2024/01/31 08:03:57;;;;;;;6.10;5.50;;;;;;;17.30;49.58;99373.84;105388;1254;61183;-41
2024/01/31 08:06:24;;;;;;;7.20;6.10;;;;;;;17.31;49.60;99369.91;105719;1254;61326;-42
2024/01/31 08:08:52;;;;;;;6.90;6.20;;;;;;;17.31;49.52;99368.40;105570;1258;74589;-41
2024/01/31 08:11:18;;;;;;;6.60;5.90;;;;;;;17.32;49.57;99367.20;105536;1257;65924;-42
2024/01/31 08:13:45;;;;;;;6.70;6.10;;;;;;;17.33;49.55;99370.27;105308;1254;72431;-42
2024/01/31 08:16:12;;;;;;;8.10;6.60;;;;;;;17.34;49.48;99366.08;105264;1260;61251;-42
2024/01/31 08:18:39;;;;;;;7.00;6.30;;;;;;;17.35;49.48;99366.82;105187;1254;61281;-41
2024/01/31 08:21:06;;;;;;;7.50;5.90;;;;;;;17.36;49.49;99366.04;105362;1257;61237;-41
2024/01/31 08:23:33;;;;;;;6.50;5.90;;;;;;;17.36;49.50;99367.21;108297;1256;66294;-39
2024/01/31 08:26:00;;;;;;;7.20;6.50;;;;;;;17.37;49.55;99369.21;105260;1257;72745;-40
2024/01/31 08:28:27;;;;;;;9.90;6.40;;;;;;;17.39;49.55;99367.92;105437;1258;61350;-40
2024/01/31 08:30:54;;;;;;;32.30;8.10;;;;;;;17.41;49.93;99363.27;105336;1257;63715;-38
2024/01/31 08:33:21;;;;;;;38.10;8.20;;;;;;;17.44;50.38;99370.63;105130;1260;75696;-39
2024/01/31 08:35:47;;;;;;;26.30;7.70;;;;;;;17.47;50.76;99364.89;105216;1259;66532;-38
2024/01/31 08:38:14;;;;;;;24.20;7.60;;;;;;;17.50;50.93;99362.52;105138;1257;72569;-38
2024/01/31 08:40:41;;;;;;;34.70;8.20;;;;;;;17.53;51.11;99364.48;106342;1258;61234;-53
2024/01/31 08:43:07;;;;;;;27.30;7.30;;;;;;;17.55;51.21;99364.98;105241;1254;61244;-49
2024/01/31 08:45:34;;;;;;;22.10;7.20;;;;;;;17.58;51.43;99360.02;105559;1254;75724;-40
2024/01/31 08:48:01;;;;;;;21.00;7.30;;;;;;;17.61;51.52;99360.83;105121;1259;67238;-38
2024/01/31 08:50:28;;;;;;;19.70;7.50;;;;;;;17.65;51.73;99359.73;105081;1257;74503;-40
2024/01/31 08:52:55;;;;;;;19.30;7.30;;;;;;;17.69;51.81;99358.43;106475;1259;61362;-40
2024/01/31 08:55:22;;;;;;;14.50;7.50;;;;;;;17.76;52.08;99360.67;104865;1257;61229;-38
2024/01/31 08:57:49;;;;;;;19.00;7.00;;;;;;;17.83;52.24;99357.86;109125;1254;75428;-39
2024/01/31 09:00:16;;;;;;;15.30;7.00;;;;;;;17.91;52.35;99357.20;105943;1257;61234;-42
2024/01/31 09:02:43;;;;;;;11.70;6.40;;;;;;;17.98;52.43;99360.36;105527;1257;72371;-39
2024/01/31 09:05:10;;;;;;;13.80;7.20;;;;;;;18.04;52.48;99356.48;107840;1256;60096;-40
2024/01/31 09:07:37;;;;;;;13.70;7.40;;;;;;;18.09;52.53;99357.18;108110;1256;60187;-41
2024/01/31 09:10:05;;;;;;;14.30;6.60;;;;;;;18.14;52.52;99351.76;105210;1254;73723;-42
2024/01/31 09:12:32;;;;;;;14.20;6.50;;;;;;;18.18;52.35;99355.08;105785;1256;64926;-43
2024/01/31 09:14:59;;;;;;;18.40;6.70;;;;;;;18.22;52.19;99353.73;105157;1257;73256;-39
2024/01/31 09:17:26;;;;;;;13.50;6.30;;;;;;;18.26;52.18;99350.16;105997;1256;61232;-40
2024/01/31 09:19:53;;;;;;;12.20;6.60;;;;;;;18.29;52.03;99343.74;109162;1256;60169;-39
2024/01/31 09:22:19;;;;;;;11.60;6.80;;;;;;;18.32;51.82;99342.04;109234;1254;75681;-40
2024/01/31 09:24:46;;;;;;;12.80;6.50;;;;;;;18.35;51.66;99338.34;109136;1255;67293;-41
2024/01/31 09:27:12;;;;;;;9.10;6.40;;;;;;;18.37;51.65;99334.59;108560;1255;73502;-40
2024/01/31 09:29:39;;;;;;;9.70;6.40;;;;;;;18.41;51.52;99335.73;105128;1262;61420;-40
2024/01/31 09:32:10;;;;;;;11.20;6.30;;;;;;;18.43;51.49;99333.04;105280;1254;61167;-40
2024/01/31 09:34:37;;;;;;;11.80;5.90;;;;;;;18.46;51.25;99332.44;105028;1254;76004;-38
2024/01/31 09:37:04;;;;;;;12.60;6.50;;;;;;;18.47;51.21;99330.57;105423;1258;66815;-39
2024/01/31 09:39:30;;;;;;;13.20;8.70;;;;;;;18.49;51.04;99324.66;105252;1256;72333;-39
2024/01/31 09:41:57;;;;;;;19.60;12.40;;;;;;;18.50;51.06;99320.63;105268;1259;61299;-39
2024/01/31 09:44:24;;;;;;;24.50;12.30;;;;;;;18.51;51.07;99318.42;104874;1262;61215;-38
2024/01/31 09:46:52;;;;;;;24.60;12.10;;;;;;;18.52;51.02;99313.59;105038;1257;75683;-39
2024/01/31 09:49:19;;;;;;;21.60;13.60;;;;;;;18.53;50.96;99308.13;105304;1259;64840;-38
2024/01/31 09:51:46;;;;;;;32.60;18.80;;;;;;;18.55;51.00;99311.65;105790;1257;73236;-38
2024/01/31 09:54:13;;;;;;;38.80;19.40;;;;;;;18.56;50.93;99309.45;105380;1259;61218;-37
2024/01/31 09:56:40;;;;;;;41.70;23.50;;;;;;;18.57;51.04;99307.37;105412;1257;61254;-38
2024/01/31 09:59:06;;;;;;;46.40;25.50;;;;;;;18.59;51.13;99303.36;105468;1257;74359;-37
2024/01/31 10:01:33;;;;;;;42.50;23.20;;;;;;;18.61;50.98;99302.11;105131;1256;66511;-36
2024/01/31 10:04:00;;;;;;;48.70;25.80;;;;;;;18.62;51.04;99301.98;107543;1256;73394;-37
2024/01/31 10:06:28;;;;;;;51.10;27.80;;;;;;;18.63;51.13;99299.55;105379;1259;62042;-38
2024/01/31 10:08:57;;;;;;;48.30;27.30;;;;;;;18.64;51.21;99291.72;105555;1254;61410;-39
2024/01/31 10:11:27;;;;;;;49.00;27.00;;;;;;;18.66;51.04;99286.30;105334;1257;75672;-36
2024/01/31 10:13:55;;;;;;;33.50;19.30;;;;;;;18.66;50.65;99287.48;105350;1259;66604;-49
2024/01/31 10:16:22;;;;;;;33.10;20.00;;;;;;;18.66;50.34;99285.04;105215;1257;73817;-38
2024/01/31 10:18:52;;;;;;;36.50;20.10;;;;;;;18.68;50.71;99284.62;105997;1259;61320;-39
2024/01/31 10:21:19;;;;;;;38.50;19.90;;;;;;;18.69;50.93;99282.30;105542;1254;61419;-38
2024/01/31 10:23:59;;;;;;;30.90;19.80;;;;;;;18.71;50.93;99281.27;105557;1254;75423;-39
2024/01/31 10:26:26;;;;;;;28.20;18.60;;;;;;;18.72;50.95;99282.23;105470;1259;66932;-39
2024/01/31 10:28:54;;;;;;;33.50;18.00;;;;;;;18.74;50.88;99283.80;105487;1257;73661;-37
2024/01/31 10:31:34;;;;;;;30.70;17.60;;;;;;;18.75;50.78;99280.63;105249;1259;62999;-37
2024/01/31 10:34:01;;;;;;;25.40;16.50;;;;;;;18.75;50.85;99278.94;105528;1254;61368;-37
2024/01/31 10:36:28;;;;;;;29.20;16.30;;;;;;;18.74;50.74;99278.37;105111;1261;75674;-38
2024/01/31 10:39:15;;;;;;;27.30;16.30;;;;;;;18.74;50.65;99279.61;105176;1260;65673;-37
2024/01/31 10:41:42;;;;;;;27.00;15.80;;;;;;;18.74;50.61;99276.20;105303;1256;73429;-39
2024/01/31 10:44:10;;;;;;;24.20;15.10;;;;;;;18.75;50.61;99278.23;105460;1256;61285;-39
2024/01/31 10:46:39;;;;;;;21.80;14.60;;;;;;;18.75;50.53;99274.45;105115;1256;169793;-38
2024/01/31 10:49:05;;;;;;;22.10;13.60;;;;;;;18.75;50.17;99275.36;105386;1257;75370;-38
2024/01/31 10:51:37;;;;;;;18.40;12.40;;;;;;;18.74;49.97;99272.14;105275;1261;66885;-38
2024/01/31 10:54:04;;;;;;;23.40;12.60;;;;;;;18.72;49.76;99270.66;105258;1255;73184;-38
2024/01/31 10:56:31;;;;;;;19.80;11.70;;;;;;;18.70;49.83;99264.52;105278;1261;61119;-38
2024/01/31 10:58:57;;;;;;;17.40;11.60;;;;;;;18.69;49.88;99263.91;107241;1254;61362;-39
2024/01/31 11:01:30;;;;;;;16.50;11.70;;;;;;;18.68;49.94;99263.87;105315;1260;74619;-37
2024/01/31 11:03:57;;;;;;;17.50;11.70;;;;;;;18.69;49.97;99259.58;105618;1258;67424;-37
2024/01/31 11:06:24;;;;;;;19.70;11.50;;;;;;;18.68;49.91;99258.83;107773;1256;73310;-37
2024/01/31 11:08:51;;;;;;;20.00;11.60;;;;;;;18.68;49.94;99258.27;105550;1259;61208;-38
2024/01/31 11:11:18;;;;;;;19.40;12.10;;;;;;;18.68;49.96;99252.60;105364;1257;61244;-38
2024/01/31 11:13:45;;;;;;;17.50;11.20;;;;;;;18.67;49.89;99253.94;105146;1255;75383;-38
2024/01/31 11:16:14;;;;;;;18.80;10.90;;;;;;;18.66;49.97;99252.59;105738;1259;66102;-41
2024/01/31 11:18:41;;;;;;;12.40;10.10;;;;;;;18.65;49.98;99249.64;105467;1254;72487;-38
2024/01/31 11:21:11;;;;;;;16.60;10.30;;;;;;;18.66;49.87;99243.59;105354;1254;61330;-38